Time;durP1;ratioP1;P1;durP2;ratioP2;P2;SDS_P1;SDS_P2;PMS_P1;PMS_P2;Temp;Humidity;BMP_temperature;BMP_pressure;BME280_temperature;BME280_humidity;BME280_pressure;Samples;Min_cycle;Max_cycle;Signal;HPM_P1;HPM_P2
2022/05/28 00:00:50;;;;;;;14.95;14.45;;;;;;;;;;5093885;28;20257;-74
2022/05/28 00:03:18;;;;;;;14.77;14.27;;;;;;;;;;5093866;28;20230;-75
2022/05/28 00:05:44;;;;;;;15.15;14.55;;;;;;;;;;5093867;28;20273;-75
2022/05/28 00:08:11;;;;;;;15.40;14.80;;;;;;;;;;5094001;28;20194;-75
2022/05/28 00:10:40;;;;;;;15.30;14.70;;;;;;;;;;5093449;28;20194;-75
2022/05/28 00:13:07;;;;;;;15.38;14.77;;;;;;;;;;5093202;28;20244;-75
2022/05/28 00:15:33;;;;;;;15.52;14.93;;;;;;;;;;5093672;28;20222;-75
2022/05/28 00:18:01;;;;;;;15.35;14.75;;;;;;;;;;5093670;28;20229;-75
2022/05/28 00:20:27;;;;;;;14.77;14.27;;;;;;;;;;5093212;28;20286;-75
2022/05/28 00:22:54;;;;;;;15.00;14.50;;;;;;;;;;5093443;28;20280;-74
2022/05/28 00:25:21;;;;;;;15.50;14.90;;;;;;;;;;5093201;28;20277;-75
2022/05/28 00:27:49;;;;;;;15.70;15.10;;;;;;;;;;5094228;28;20193;-75
2022/05/28 00:30:17;;;;;;;15.27;14.68;;;;;;;;;;5093422;28;20276;-73
2022/05/28 00:32:44;;;;;;;15.30;14.70;;;;;;;;;;5093353;28;20194;-75
2022/05/28 00:35:12;;;;;;;14.70;14.20;;;;;;;;;;5093288;28;20676;-74
2022/05/28 00:37:39;;;;;;;14.63;14.13;;;;;;;;;;5093206;28;20200;-74
2022/05/28 00:40:06;;;;;;;15.05;14.55;;;;;;;;;;5093391;28;20236;-75
2022/05/28 00:42:33;;;;;;;15.10;14.50;;;;;;;;;;5093146;28;20220;-75
2022/05/28 00:45:01;;;;;;;15.50;14.90;;;;;;;;;;5093120;28;20272;-75
2022/05/28 00:47:28;;;;;;;14.77;14.27;;;;;;;;;;5092782;28;20289;-75
2022/05/28 00:49:55;;;;;;;14.73;14.23;;;;;;;;;;5092711;28;20705;-74
2022/05/28 00:52:24;;;;;;;14.80;14.30;;;;;;;;;;5092876;28;20234;-74
2022/05/28 00:54:50;;;;;;;15.30;14.70;;;;;;;;;;5092702;28;20289;-74
2022/05/28 00:57:17;;;;;;;16.50;15.80;;;;;;;;;;5093765;28;20634;-74
2022/05/28 00:59:44;;;;;;;15.52;14.93;;;;;;;;;;5092796;28;20235;-74
2022/05/28 01:02:16;;;;;;;15.43;14.82;;;;;;;;;;5092525;28;20233;-74
2022/05/28 01:04:48;;;;;;;15.63;15.02;;;;;;;;;;5092782;28;20612;-74
2022/05/28 01:07:19;;;;;;;16.55;15.85;;;;;;;;;;5092438;28;20224;-74
2022/05/28 01:09:49;;;;;;;16.40;15.70;;;;;;;;;;5093035;28;20268;-76
2022/05/28 01:12:20;;;;;;;16.27;15.57;;;;;;;;;;5092148;28;20230;-74
2022/05/28 01:14:50;;;;;;;16.33;15.63;;;;;;;;;;5092408;28;20219;-76
2022/05/28 01:17:21;;;;;;;16.67;15.95;;;;;;;;;;5092633;28;20293;-79
2022/05/28 01:19:51;;;;;;;20.98;19.55;;;;;;;;;;5092258;28;20308;-75
2022/05/28 01:22:21;;;;;;;33.25;31.05;;;;;;;;;;5092223;28;20200;-74
2022/05/28 01:24:53;;;;;;;34.05;31.75;;;;;;;;;;5092242;28;20196;-77
2022/05/28 01:27:23;;;;;;;32.88;30.65;;;;;;;;;;5092514;28;20189;-78
2022/05/28 01:29:54;;;;;;;31.13;29.02;;;;;;;;;;5092158;28;20656;-77
2022/05/28 01:32:21;;;;;;;31.95;29.85;;;;;;;;;;5092445;28;20190;-82
2022/05/28 01:34:48;;;;;;;32.25;30.15;;;;;;;;;;5092103;28;20281;-75
2022/05/28 01:37:16;;;;;;;29.88;28.08;;;;;;;;;;5092122;28;20193;-74
2022/05/28 01:39:46;;;;;;;30.10;28.40;;;;;;;;;;5093071;28;20229;-75
2022/05/28 01:42:13;;;;;;;27.38;25.88;;;;;;;;;;5092026;28;20690;-73
2022/05/28 01:44:42;;;;;;;24.98;23.58;;;;;;;;;;5092002;28;20205;-74
2022/05/28 01:47:10;;;;;;;22.30;20.80;;;;;;;;;;5092031;28;20280;-81
2022/05/28 01:49:36;;;;;;;22.38;20.98;;;;;;;;;;5092305;28;20292;-76
2022/05/28 01:52:04;;;;;;;22.02;20.63;;;;;;;;;;5092269;28;20190;-77
2022/05/28 01:54:33;;;;;;;21.70;20.40;;;;;;;;;;5091952;28;20282;-76
2022/05/28 01:57:00;;;;;;;22.20;20.83;;;;;;;;;;5092176;28;20272;-72
2022/05/28 01:59:28;;;;;;;22.55;21.15;;;;;;;;;;5091808;28;20676;-79
2022/05/28 02:01:58;;;;;;;22.00;20.70;;;;;;;;;;5092166;28;20193;-73
2022/05/28 02:04:25;;;;;;;20.65;19.45;;;;;;;;;;5093487;28;20197;-73
2022/05/28 02:06:51;;;;;;;20.15;19.05;;;;;;;;;;5095913;28;20189;-73
2022/05/28 02:09:20;;;;;;;19.63;18.52;;;;;;;;;;5095995;28;20198;-75
2022/05/28 02:11:50;;;;;;;18.85;17.85;;;;;;;;;;5095875;28;20293;-76
2022/05/28 02:14:20;;;;;;;19.10;18.10;;;;;;;;;;5096089;28;20205;-75
2022/05/28 02:16:50;;;;;;;18.92;17.92;;;;;;;;;;5096007;28;20193;-75
2022/05/28 02:19:22;;;;;;;18.50;17.50;;;;;;;;;;5095648;28;20186;-74
2022/05/28 02:21:51;;;;;;;18.75;17.75;;;;;;;;;;5095617;28;20233;-73
2022/05/28 02:24:18;;;;;;;18.60;17.60;;;;;;;;;;5095821;28;20202;-75
2022/05/28 02:26:48;;;;;;;18.73;17.73;;;;;;;;;;5095831;28;20224;-74
2022/05/28 02:29:14;;;;;;;18.75;17.75;;;;;;;;;;5095462;28;20194;-74
2022/05/28 02:31:44;;;;;;;18.25;17.35;;;;;;;;;;5095986;28;20277;-73
2022/05/28 02:34:11;;;;;;;18.77;17.77;;;;;;;;;;5095641;28;20258;-76
2022/05/28 02:36:40;;;;;;;18.55;17.55;;;;;;;;;;5095808;28;20289;-74
2022/05/28 02:39:06;;;;;;;18.77;17.77;;;;;;;;;;5095603;28;20276;-73
2022/05/28 02:41:33;;;;;;;18.63;17.63;;;;;;;;;;5095430;28;20229;-73
2022/05/28 02:44:00;;;;;;;18.23;17.33;;;;;;;;;;5095170;28;20198;-73
2022/05/28 02:46:27;;;;;;;17.85;16.95;;;;;;;;;;5095420;28;20197;-73
2022/05/28 02:48:54;;;;;;;17.77;16.88;;;;;;;;;;5095253;28;20204;-73
2022/05/28 02:51:21;;;;;;;18.00;17.10;;;;;;;;;;5095076;28;20739;-73
2022/05/28 02:53:50;;;;;;;17.85;16.95;;;;;;;;;;5094930;28;20198;-73
2022/05/28 02:56:17;;;;;;;17.60;16.70;;;;;;;;;;5095495;28;20197;-73
2022/05/28 02:58:44;;;;;;;17.50;16.60;;;;;;;;;;5095422;28;20196;-73
2022/05/28 03:01:19;;;;;;;16.77;15.98;;;;;;;;;;5095030;28;20230;-73
2022/05/28 03:03:45;;;;;;;17.00;16.20;;;;;;;;;;5094809;28;20194;-73
2022/05/28 03:06:12;;;;;;;17.05;16.25;;;;;;;;;;5094696;28;20736;-73
2022/05/28 03:08:39;;;;;;;16.88;16.08;;;;;;;;;;5094681;28;20687;-72
2022/05/28 03:11:07;;;;;;;17.23;16.38;;;;;;;;;;5094959;28;20194;-73
2022/05/28 03:13:33;;;;;;;16.98;16.17;;;;;;;;;;5094421;28;20313;-73
2022/05/28 03:16:00;;;;;;;17.50;16.60;;;;;;;;;;5093871;28;20196;-73
2022/05/28 03:18:28;;;;;;;17.60;16.70;;;;;;;;;;5094778;28;20233;-73
2022/05/28 03:20:55;;;;;;;17.25;16.35;;;;;;;;;;5094958;28;20229;-73
2022/05/28 03:23:21;;;;;;;17.27;16.38;;;;;;;;;;5094669;28;20194;-72
2022/05/28 03:25:48;;;;;;;16.98;16.17;;;;;;;;;;5094377;28;20200;-73
2022/05/28 03:28:16;;;;;;;17.52;16.63;;;;;;;;;;5094610;28;20190;-72
2022/05/28 03:30:43;;;;;;;16.88;16.08;;;;;;;;;;5094491;28;20190;-73
2022/05/28 03:33:10;;;;;;;17.45;16.55;;;;;;;;;;5094537;28;20189;-72
2022/05/28 03:35:37;;;;;;;16.52;15.73;;;;;;;;;;5094111;28;20277;-73
2022/05/28 03:38:04;;;;;;;16.40;15.60;;;;;;;;;;5094473;28;20221;-73
2022/05/28 03:40:31;;;;;;;16.10;15.40;;;;;;;;;;5094299;28;20222;-72
2022/05/28 03:42:58;;;;;;;16.50;15.70;;;;;;;;;;5093988;28;20731;-73
2022/05/28 03:45:27;;;;;;;16.40;15.65;;;;;;;;;;5094231;28;20677;-73
2022/05/28 03:47:55;;;;;;;16.70;15.90;;;;;;;;;;5094220;28;20277;-73
2022/05/28 03:50:21;;;;;;;16.00;15.30;;;;;;;;;;5094102;28;20281;-74
2022/05/28 03:52:48;;;;;;;15.88;15.18;;;;;;;;;;5094122;28;20220;-73
2022/05/28 03:55:15;;;;;;;16.65;15.85;;;;;;;;;;5094097;28;20206;-73
2022/05/28 03:57:41;;;;;;;16.52;15.73;;;;;;;;;;5094077;28;20200;-72
2022/05/28 04:00:09;;;;;;;16.30;15.50;;;;;;;;;;5093580;28;20312;-73
2022/05/28 04:02:37;;;;;;;23.20;21.90;;;;;;;;;;5094215;28;20197;-76
2022/05/28 04:05:04;;;;;;;25.30;23.90;;;;;;;;;;5093593;28;20198;-75
2022/05/28 04:07:30;;;;;;;24.48;23.00;;;;;;;;;;5093601;28;20193;-75
2022/05/28 04:09:57;;;;;;;25.35;23.85;;;;;;;;;;5093750;28;20197;-75
2022/05/28 04:12:24;;;;;;;28.42;26.52;;;;;;;;;;5093519;28;20233;-72
2022/05/28 04:14:50;;;;;;;22.75;21.25;;;;;;;;;;5093722;28;20200;-73
2022/05/28 04:17:17;;;;;;;22.23;21.02;;;;;;;;;;5093333;28;20611;-75
2022/05/28 04:19:45;;;;;;;20.95;19.75;;;;;;;;;;5093318;28;20283;-75
2022/05/28 04:22:12;;;;;;;20.95;19.77;;;;;;;;;;5093500;28;20226;-76
2022/05/28 04:24:39;;;;;;;22.23;21.02;;;;;;;;;;5093824;28;20221;-74
2022/05/28 04:27:06;;;;;;;23.70;22.40;;;;;;;;;;5093050;28;20196;-74
2022/05/28 04:29:33;;;;;;;22.42;21.23;;;;;;;;;;5093171;28;20242;-74
2022/05/28 04:31:59;;;;;;;24.75;23.35;;;;;;;;;;5093432;28;20281;-73
2022/05/28 04:34:26;;;;;;;24.33;22.92;;;;;;;;;;5093617;28;20198;-78
2022/05/28 04:36:54;;;;;;;21.98;20.67;;;;;;;;;;5093339;28;20196;-75
2022/05/28 04:39:21;;;;;;;25.88;24.38;;;;;;;;;;5093275;28;20208;-76
2022/05/28 04:41:47;;;;;;;24.85;23.45;;;;;;;;;;5092823;28;20321;-76
2022/05/28 04:44:14;;;;;;;21.33;20.13;;;;;;;;;;5093239;28;20194;-75
2022/05/28 04:46:41;;;;;;;20.80;19.65;;;;;;;;;;5093131;28;20224;-75
2022/05/28 04:49:07;;;;;;;20.60;19.50;;;;;;;;;;5093342;28;20289;-78
2022/05/28 04:51:34;;;;;;;18.95;17.95;;;;;;;;;;5092756;28;20688;-76
2022/05/28 04:54:02;;;;;;;19.20;18.20;;;;;;;;;;5092964;28;20194;-75
2022/05/28 04:56:29;;;;;;;19.48;18.48;;;;;;;;;;5092991;28;20233;-76
2022/05/28 04:58:56;;;;;;;18.70;17.80;;;;;;;;;;5092591;28;20202;-75
2022/05/28 05:01:24;;;;;;;18.75;17.85;;;;;;;;;;5092818;28;20308;-74
2022/05/28 05:03:50;;;;;;;18.45;17.55;;;;;;;;;;5093686;28;20196;-74
2022/05/28 05:06:17;;;;;;;18.20;17.30;;;;;;;;;;5092846;28;20208;-73
2022/05/28 05:08:44;;;;;;;16.90;16.10;;;;;;;;;;5092808;28;20222;-76
2022/05/28 05:11:12;;;;;;;16.98;16.27;;;;;;;;;;5092582;28;20204;-76
2022/05/28 05:13:38;;;;;;;16.83;16.13;;;;;;;;;;5092610;28;20725;-75
2022/05/28 05:16:07;;;;;;;15.43;14.82;;;;;;;;;;5092353;28;20289;-76
2022/05/28 05:18:34;;;;;;;15.50;14.90;;;;;;;;;;5092581;28;20277;-76
2022/05/28 05:21:01;;;;;;;15.20;14.60;;;;;;;;;;5092517;28;20317;-77
2022/05/28 05:23:27;;;;;;;14.75;14.15;;;;;;;;;;5092569;28;20602;-76
2022/05/28 05:25:54;;;;;;;14.93;14.32;;;;;;;;;;5092209;28;20682;-77
2022/05/28 05:28:22;;;;;;;15.35;14.75;;;;;;;;;;5092236;28;20200;-77
2022/05/28 05:30:49;;;;;;;15.80;14.90;;;;;;;;;;5092508;28;20205;-77
2022/05/28 05:33:15;;;;;;;18.95;17.55;;;;;;;;;;5092145;28;20284;-76
2022/05/28 05:35:42;;;;;;;23.02;20.92;;;;;;;;;;5092079;28;20195;-75
2022/05/28 05:38:09;;;;;;;23.20;21.20;;;;;;;;;;5091944;28;20194;-73
2022/05/28 05:40:37;;;;;;;23.88;21.98;;;;;;;;;;5091552;28;20233;-73
2022/05/28 05:43:04;;;;;;;25.02;23.13;;;;;;;;;;5092379;28;20197;-71
2022/05/28 05:45:32;;;;;;;24.55;22.85;;;;;;;;;;5092316;28;20194;-71
2022/05/28 05:47:59;;;;;;;24.85;23.05;;;;;;;;;;5092030;28;20293;-71
2022/05/28 05:50:25;;;;;;;26.77;24.77;;;;;;;;;;5092026;28;20194;-71
2022/05/28 05:52:52;;;;;;;24.27;22.67;;;;;;;;;;5092780;28;20237;-72
2022/05/28 05:55:19;;;;;;;20.40;19.20;;;;;;;;;;5092311;28;20202;-72
2022/05/28 05:57:45;;;;;;;20.52;19.23;;;;;;;;;;5092118;28;20293;-72
2022/05/28 06:00:13;;;;;;;19.30;18.15;;;;;;;;;;5091765;28;20286;-70
2022/05/28 06:02:41;;;;;;;20.48;19.17;;;;;;;;;;5091788;28;20225;-71
2022/05/28 06:05:08;;;;;;;21.10;19.80;;;;;;;;;;5091879;28;20189;-73
2022/05/28 06:07:36;;;;;;;21.17;19.77;;;;;;;;;;5091871;28;20194;-72
2022/05/28 06:10:02;;;;;;;20.88;19.58;;;;;;;;;;5092097;28;20201;-72
2022/05/28 06:12:29;;;;;;;22.83;21.42;;;;;;;;;;5091574;28;20741;-73
2022/05/28 06:14:56;;;;;;;22.15;20.85;;;;;;;;;;5091788;28;20194;-72
2022/05/28 06:17:22;;;;;;;20.30;19.10;;;;;;;;;;5091991;28;20233;-74
2022/05/28 06:19:50;;;;;;;21.73;20.42;;;;;;;;;;5091707;28;20285;-72
2022/05/28 06:22:17;;;;;;;22.25;20.90;;;;;;;;;;5092969;28;20237;-73
2022/05/28 06:24:44;;;;;;;21.75;20.45;;;;;;;;;;5092030;28;20577;-72
2022/05/28 06:27:10;;;;;;;22.90;21.50;;;;;;;;;;5091911;28;20204;-74
2022/05/28 06:29:37;;;;;;;22.25;20.95;;;;;;;;;;5091935;28;20280;-74
2022/05/28 06:32:04;;;;;;;22.98;21.67;;;;;;;;;;5091603;28;20280;-74
2022/05/28 06:34:31;;;;;;;22.08;20.77;;;;;;;;;;5091504;28;20544;-74
2022/05/28 06:36:59;;;;;;;22.23;20.85;;;;;;;;;;5091940;28;20193;-73
2022/05/28 06:39:26;;;;;;;22.83;21.42;;;;;;;;;;5091571;28;20720;-73
2022/05/28 06:41:53;;;;;;;22.52;21.13;;;;;;;;;;5091735;28;20233;-72
2022/05/28 06:44:19;;;;;;;24.50;23.00;;;;;;;;;;5091845;28;20226;-73
2022/05/28 06:46:46;;;;;;;22.45;21.20;;;;;;;;;;5091390;28;20233;-73
2022/05/28 06:49:13;;;;;;;21.95;20.75;;;;;;;;;;5091454;28;20190;-72
2022/05/28 06:51:40;;;;;;;21.23;20.08;;;;;;;;;;5093324;28;20645;-73
2022/05/28 06:54:08;;;;;;;21.65;20.45;;;;;;;;;;5095010;28;20197;-71
2022/05/28 06:56:34;;;;;;;21.55;20.35;;;;;;;;;;5094989;28;20200;-73
2022/05/28 06:59:01;;;;;;;21.70;20.50;;;;;;;;;;5095105;28;20186;-73
2022/05/28 07:01:28;;;;;;;22.58;21.27;;;;;;;;;;5094834;28;20311;-72
2022/05/28 07:03:55;;;;;;;22.58;21.27;;;;;;;;;;5094770;28;20205;-73
2022/05/28 07:06:21;;;;;;;19.80;18.70;;;;;;;;;;5095059;28;20297;-73
2022/05/28 07:08:48;;;;;;;20.50;19.30;;;;;;;;;;5095077;28;20368;-73
2022/05/28 07:11:16;;;;;;;20.58;19.45;;;;;;;;;;5094607;28;20276;-73
2022/05/28 07:13:43;;;;;;;18.45;17.45;;;;;;;;;;5094515;28;20233;-72
2022/05/28 07:16:11;;;;;;;20.63;19.52;;;;;;;;;;5094554;28;20284;-72
2022/05/28 07:18:38;;;;;;;20.90;19.80;;;;;;;;;;5094530;28;20190;-72
2022/05/28 07:21:06;;;;;;;18.65;17.70;;;;;;;;;;5094698;28;20281;-73
2022/05/28 07:23:33;;;;;;;20.45;19.42;;;;;;;;;;5094724;28;20226;-73
2022/05/28 07:26:01;;;;;;;20.92;19.83;;;;;;;;;;5094672;28;20198;-72
2022/05/28 07:28:30;;;;;;;20.27;19.27;;;;;;;;;;5094637;28;20190;-73
2022/05/28 07:30:58;;;;;;;18.40;17.50;;;;;;;;;;5094557;28;20663;-72
2022/05/28 07:33:25;;;;;;;18.75;17.75;;;;;;;;;;5094777;28;20272;-72
2022/05/28 07:35:52;;;;;;;18.45;17.45;;;;;;;;;;5094448;28;20194;-72
2022/05/28 07:38:19;;;;;;;20.75;19.65;;;;;;;;;;5094468;28;20193;-72
2022/05/28 07:40:46;;;;;;;20.13;19.02;;;;;;;;;;5094387;28;20229;-72
2022/05/28 07:43:13;;;;;;;19.65;18.65;;;;;;;;;;5094324;28;20661;-73
2022/05/28 07:45:42;;;;;;;17.27;16.38;;;;;;;;;;5094205;28;20194;-73
2022/05/28 07:48:09;;;;;;;21.08;19.98;;;;;;;;;;5094005;28;20197;-77
2022/05/28 07:50:36;;;;;;;18.98;17.98;;;;;;;;;;5094188;28;20198;-72
2022/05/28 07:53:03;;;;;;;18.85;17.85;;;;;;;;;;5094189;28;20205;-72
2022/05/28 07:55:30;;;;;;;18.33;17.42;;;;;;;;;;5093804;28;20706;-72
2022/05/28 07:57:57;;;;;;;19.40;18.40;;;;;;;;;;5094276;28;20280;-71
2022/05/28 08:00:24;;;;;;;19.00;18.10;;;;;;;;;;5093793;28;20678;-72
2022/05/28 08:02:52;;;;;;;21.02;20.02;;;;;;;;;;5093052;28;20660;-71
2022/05/28 08:05:19;;;;;;;21.77;20.67;;;;;;;;;;5093637;28;20574;-71
2022/05/28 08:07:45;;;;;;;19.20;18.30;;;;;;;;;;5093853;28;20225;-82
2022/05/28 08:10:12;;;;;;;19.08;18.17;;;;;;;;;;5093822;28;20236;-71
2022/05/28 08:12:39;;;;;;;18.58;17.67;;;;;;;;;;5093467;28;20236;-72
2022/05/28 08:15:06;;;;;;;21.95;20.85;;;;;;;;;;5093733;28;20204;-71
2022/05/28 08:17:33;;;;;;;18.65;17.75;;;;;;;;;;5093701;28;20231;-71
2022/05/28 08:20:01;;;;;;;18.98;18.08;;;;;;;;;;5093991;28;20228;-78
2022/05/28 08:25:11;;;;;;;18.58;17.67;;;;;;;;;;5093898;28;20185;-71
2022/05/28 08:27:38;;;;;;;19.83;18.92;;;;;;;;;;5093508;28;20626;-71
2022/05/28 08:30:05;;;;;;;20.83;19.73;;;;;;;;;;5093173;28;20200;-72
2022/05/28 08:32:32;;;;;;;19.75;18.85;;;;;;;;;;5093428;28;20236;-72
2022/05/28 08:34:59;;;;;;;19.27;18.38;;;;;;;;;;5093320;28;20194;-71
2022/05/28 08:37:27;;;;;;;18.60;17.70;;;;;;;;;;5093315;28;20216;-72
2022/05/28 08:39:54;;;;;;;18.20;17.38;;;;;;;;;;5092900;28;20197;-74
2022/05/28 08:42:22;;;;;;;18.58;17.67;;;;;;;;;;5093204;28;20272;-78
2022/05/28 08:44:49;;;;;;;18.50;17.60;;;;;;;;;;5093190;28;20193;-71
2022/05/28 08:47:17;;;;;;;18.35;17.45;;;;;;;;;;5093386;28;20259;-79
2022/05/28 08:49:44;;;;;;;18.08;17.17;;;;;;;;;;5093058;28;20221;-72
2022/05/28 08:52:13;;;;;;;18.65;17.75;;;;;;;;;;5093069;28;20287;-71
2022/05/28 08:54:42;;;;;;;18.73;17.83;;;;;;;;;;5092699;28;20232;-72
2022/05/28 08:57:11;;;;;;;18.60;17.70;;;;;;;;;;5092690;28;20743;-71
2022/05/28 08:59:40;;;;;;;18.60;17.73;;;;;;;;;;5092615;28;20752;-72
2022/05/28 09:02:10;;;;;;;18.95;18.05;;;;;;;;;;5092524;28;20225;-71
2022/05/28 09:04:39;;;;;;;18.95;18.05;;;;;;;;;;5092859;28;20194;-72
2022/05/28 09:07:06;;;;;;;19.42;18.52;;;;;;;;;;5092466;28;20204;-71
2022/05/28 09:09:37;;;;;;;18.92;18.08;;;;;;;;;;5092458;28;20288;-70
2022/05/28 09:12:06;;;;;;;19.17;18.27;;;;;;;;;;5092469;28;20225;-71
2022/05/28 09:14:34;;;;;;;19.20;18.30;;;;;;;;;;5091660;28;20763;-71
2022/05/28 09:17:01;;;;;;;19.42;18.52;;;;;;;;;;5092929;28;20194;-78
2022/05/28 09:19:30;;;;;;;17.88;17.08;;;;;;;;;;5092350;28;20284;-80
2022/05/28 09:21:56;;;;;;;19.65;18.75;;;;;;;;;;5092565;28;20313;-71
2022/05/28 09:24:24;;;;;;;19.52;18.63;;;;;;;;;;5092794;28;20198;-78
2022/05/28 09:26:59;;;;;;;20.08;19.13;;;;;;;;;;5092561;28;20198;-70
2022/05/28 09:29:32;;;;;;;19.80;18.90;;;;;;;;;;5092211;28;20189;-74
2022/05/28 09:32:03;;;;;;;19.52;18.63;;;;;;;;;;5092552;28;20196;-77
2022/05/28 09:34:37;;;;;;;19.63;18.73;;;;;;;;;;5092186;28;20197;-73
2022/05/28 09:37:07;;;;;;;19.27;18.38;;;;;;;;;;5092150;28;20276;-71
2022/05/28 09:39:39;;;;;;;18.85;17.95;;;;;;;;;;5092077;28;20277;-72
2022/05/28 09:42:10;;;;;;;19.25;18.35;;;;;;;;;;5092384;28;20655;-77
2022/05/28 09:44:41;;;;;;;19.92;19.00;;;;;;;;;;5092089;28;20225;-75
2022/05/28 09:47:09;;;;;;;18.63;17.73;;;;;;;;;;5092355;28;20196;-72
2022/05/28 09:49:54;;;;;;;18.52;17.73;;;;;;;;;;5091964;28;20190;-72
2022/05/28 09:52:23;;;;;;;17.60;16.80;;;;;;;;;;5092368;28;20189;-70
2022/05/28 09:54:49;;;;;;;18.27;17.48;;;;;;;;;;5092176;28;20273;-75
2022/05/28 09:57:22;;;;;;;18.75;17.85;;;;;;;;;;5092263;28;20639;-71
2022/05/28 09:59:54;;;;;;;17.58;16.88;;;;;;;;;;5091926;28;20686;-70
2022/05/28 10:02:22;;;;;;;19.17;18.35;;;;;;;;;;5091894;28;20640;-70
2022/05/28 10:04:50;;;;;;;19.30;18.50;;;;;;;;;;5092200;28;20281;-79
2022/05/28 10:07:27;;;;;;;20.42;19.48;;;;;;;;;;5091857;28;20198;-70
2022/05/28 10:09:54;;;;;;;20.35;19.45;;;;;;;;;;5091812;28;20686;-71
2022/05/28 10:12:23;;;;;;;20.40;19.52;;;;;;;;;;5091952;28;20225;-71
2022/05/28 10:14:59;;;;;;;19.88;19.08;;;;;;;;;;5092004;28;20197;-77
2022/05/28 10:17:26;;;;;;;20.02;18.77;;;;;;;;;;5091994;28;20197;-71
2022/05/28 10:19:54;;;;;;;19.50;18.70;;;;;;;;;;5091707;28;20196;-71
2022/05/28 10:22:23;;;;;;;18.83;18.02;;;;;;;;;;5092206;28;20541;-70
2022/05/28 10:24:51;;;;;;;18.05;17.25;;;;;;;;;;5092215;28;20197;-70
2022/05/28 10:27:27;;;;;;;17.70;16.90;;;;;;;;;;5095457;28;20194;-71
2022/05/28 10:29:57;;;;;;;16.90;16.20;;;;;;;;;;5096071;28;20293;-70
2022/05/28 10:32:28;;;;;;;18.33;17.52;;;;;;;;;;5095424;28;20233;-70
2022/05/28 10:35:00;;;;;;;17.10;16.40;;;;;;;;;;5095680;28;20570;-71
2022/05/28 10:37:26;;;;;;;18.42;17.63;;;;;;;;;;5095344;28;20691;-77
2022/05/28 10:40:02;;;;;;;17.35;16.65;;;;;;;;;;5095591;28;20204;-71
2022/05/28 10:42:28;;;;;;;18.30;17.50;;;;;;;;;;5095261;28;20262;-71
2022/05/28 10:44:56;;;;;;;17.70;16.90;;;;;;;;;;5095183;28;20648;-79
2022/05/28 10:47:31;;;;;;;20.40;19.50;;;;;;;;;;5096269;28;20221;-70
2022/05/28 10:50:03;;;;;;;18.80;17.90;;;;;;;;;;5095140;28;20192;-70
2022/05/28 10:52:35;;;;;;;16.77;16.08;;;;;;;;;;5095090;28;20599;-71
2022/05/28 10:55:05;;;;;;;17.35;16.55;;;;;;;;;;5095123;28;20211;-70
2022/05/28 10:57:49;;;;;;;17.02;16.23;;;;;;;;;;5095531;28;20473;-77
2022/05/28 11:00:19;;;;;;;16.70;16.00;;;;;;;;;;5095233;28;20201;-70
2022/05/28 11:03:00;;;;;;;16.95;16.15;;;;;;;;;;5094768;28;20662;-71
2022/05/28 11:05:36;;;;;;;16.58;15.88;;;;;;;;;;5094839;28;20736;-72
2022/05/28 11:08:07;;;;;;;16.70;16.00;;;;;;;;;;5095038;28;20192;-71
2022/05/28 11:10:41;;;;;;;17.75;16.95;;;;;;;;;;5094962;28;20193;-71
2022/05/28 11:13:29;;;;;;;18.30;17.50;;;;;;;;;;5094686;28;20233;-71
2022/05/28 11:16:02;;;;;;;18.13;17.33;;;;;;;;;;5091165;28;20285;-70
2022/05/28 11:18:54;;;;;;;18.25;17.45;;;;;;;;;;5094564;28;20740;-78
2022/05/28 11:21:36;;;;;;;18.23;17.42;;;;;;;;;;5094848;28;20243;-74
2022/05/28 11:24:09;;;;;;;17.83;17.02;;;;;;;;;;5094427;28;20756;-71
2022/05/28 11:26:38;;;;;;;17.70;16.90;;;;;;;;;;5094467;28;20186;-80
2022/05/28 11:29:22;;;;;;;17.88;17.08;;;;;;;;;;5094668;28;20276;-70
2022/05/28 11:31:51;;;;;;;18.20;17.40;;;;;;;;;;5094396;28;20276;-71
2022/05/28 11:34:20;;;;;;;17.65;16.85;;;;;;;;;;5094300;28;20701;-71
2022/05/28 11:36:49;;;;;;;18.10;17.30;;;;;;;;;;5093571;28;20280;-82
2022/05/28 11:39:18;;;;;;;17.95;17.15;;;;;;;;;;5094445;28;20285;-71
2022/05/28 11:41:48;;;;;;;18.20;17.38;;;;;;;;;;5094361;28;20273;-77
2022/05/28 11:44:17;;;;;;;18.58;17.67;;;;;;;;;;5094000;28;20221;-71
2022/05/28 11:46:47;;;;;;;18.23;17.42;;;;;;;;;;5093924;28;20200;-74
2022/05/28 11:52:07;;;;;;;18.20;17.40;;;;;;;;;;5094390;28;20193;-71
2022/05/28 11:54:36;;;;;;;18.50;17.60;;;;;;;;;;5094453;28;20194;-71
2022/05/28 11:57:04;;;;;;;18.85;17.95;;;;;;;;;;5094120;28;20293;-71
2022/05/28 11:59:32;;;;;;;18.17;17.38;;;;;;;;;;5093719;28;20664;-70
2022/05/28 12:02:02;;;;;;;19.30;18.40;;;;;;;;;;5093987;28;20189;-71
2022/05/28 12:04:30;;;;;;;19.30;18.40;;;;;;;;;;5093900;28;20260;-71
2022/05/28 12:07:02;;;;;;;18.98;18.10;;;;;;;;;;5093820;28;20193;-71
2022/05/28 12:09:33;;;;;;;19.65;18.75;;;;;;;;;;5093955;28;20228;-71
2022/05/28 12:12:02;;;;;;;19.80;18.90;;;;;;;;;;5093358;28;20186;-71
2022/05/28 12:14:30;;;;;;;19.60;18.70;;;;;;;;;;5093514;28;20194;-71
2022/05/28 12:17:00;;;;;;;18.85;18.05;;;;;;;;;;5093953;28;20278;-71
2022/05/28 12:19:27;;;;;;;18.33;17.52;;;;;;;;;;5093571;28;20590;-75
2022/05/28 12:21:53;;;;;;;18.77;17.98;;;;;;;;;;5093626;28;20190;-71
2022/05/28 12:24:27;;;;;;;18.00;17.20;;;;;;;;;;5093129;28;20312;-77
2022/05/28 12:27:13;;;;;;;17.92;17.13;;;;;;;;;;5093485;28;20202;-71
2022/05/28 12:29:45;;;;;;;17.77;16.98;;;;;;;;;;5093199;28;20193;-79
2022/05/28 12:32:17;;;;;;;17.58;16.77;;;;;;;;;;5093307;28;20277;-71
2022/05/28 12:34:51;;;;;;;17.60;16.80;;;;;;;;;;5093057;28;20272;-71
2022/05/28 12:37:20;;;;;;;17.75;16.95;;;;;;;;;;5093346;28;20186;-71
2022/05/28 12:39:53;;;;;;;17.60;16.80;;;;;;;;;;5093459;28;20254;-72
2022/05/28 12:42:23;;;;;;;17.50;16.70;;;;;;;;;;5093191;28;20185;-71
2022/05/28 12:44:50;;;;;;;17.05;16.25;;;;;;;;;;5092723;28;20312;-71
2022/05/28 12:47:24;;;;;;;17.15;16.35;;;;;;;;;;5093111;28;20193;-71
2022/05/28 12:49:56;;;;;;;16.90;16.10;;;;;;;;;;5092719;28;20652;-70
2022/05/28 12:52:34;;;;;;;17.08;16.27;;;;;;;;;;5093135;28;20190;-78
2022/05/28 12:55:17;;;;;;;17.30;16.50;;;;;;;;;;5092749;28;20715;-71
2022/05/28 12:57:57;;;;;;;18.00;17.20;;;;;;;;;;5092636;28;20204;-71
2022/05/28 13:00:28;;;;;;;17.40;16.60;;;;;;;;;;5092727;28;20280;-72
2022/05/28 13:02:55;;;;;;;17.48;16.67;;;;;;;;;;5092772;28;20253;-70
2022/05/28 13:05:25;;;;;;;17.45;16.65;;;;;;;;;;5092560;28;20200;-72
2022/05/28 13:07:53;;;;;;;17.10;16.30;;;;;;;;;;5092736;28;20236;-71
2022/05/28 13:10:21;;;;;;;17.20;16.40;;;;;;;;;;5092478;28;20281;-75
2022/05/28 13:12:55;;;;;;;17.02;16.23;;;;;;;;;;5092251;28;20236;-75
2022/05/28 13:15:36;;;;;;;17.13;16.33;;;;;;;;;;5092461;28;20190;-71
2022/05/28 13:18:15;;;;;;;16.42;15.65;;;;;;;;;;5092671;28;20200;-72
2022/05/28 13:20:55;;;;;;;16.38;15.57;;;;;;;;;;5092902;28;20196;-71
2022/05/28 13:23:29;;;;;;;16.52;15.73;;;;;;;;;;5092540;28;20300;-72
2022/05/28 13:26:04;;;;;;;16.52;15.75;;;;;;;;;;5092325;28;20194;-71
2022/05/28 13:28:48;;;;;;;17.35;16.55;;;;;;;;;;5092239;28;20560;-70
2022/05/28 13:31:16;;;;;;;16.90;16.20;;;;;;;;;;5092158;28;20272;-70
2022/05/28 13:33:43;;;;;;;16.63;15.93;;;;;;;;;;5092462;28;20204;-75
2022/05/28 13:36:11;;;;;;;16.58;15.88;;;;;;;;;;5092423;28;20723;-70
2022/05/28 13:38:40;;;;;;;16.60;15.90;;;;;;;;;;5092122;28;20284;-72
2022/05/28 13:41:10;;;;;;;16.85;16.10;;;;;;;;;;5093199;28;20229;-75
2022/05/28 13:43:38;;;;;;;16.67;15.98;;;;;;;;;;5092627;28;20235;-75
2022/05/28 13:46:09;;;;;;;16.83;16.13;;;;;;;;;;5092342;28;20554;-75
2022/05/28 13:48:39;;;;;;;17.55;16.65;;;;;;;;;;5092059;28;20190;-76
2022/05/28 13:51:08;;;;;;;23.77;21.40;;;;;;;;;;5092592;28;20194;-76
2022/05/28 13:53:37;;;;;;;18.48;17.77;;;;;;;;;;5092217;28;20197;-69
2022/05/28 13:56:05;;;;;;;18.58;17.77;;;;;;;;;;5091981;28;20281;-72
2022/05/28 13:58:33;;;;;;;14.50;14.00;;;;;;;;;;5091920;28;20282;-75
2022/05/28 14:01:01;;;;;;;14.65;14.13;;;;;;;;;;5094251;28;20711;-73
2022/05/28 14:03:30;;;;;;;14.52;14.02;;;;;;;;;;5095955;28;20314;-75
2022/05/28 14:05:57;;;;;;;15.00;14.40;;;;;;;;;;5096223;28;20229;-76
2022/05/28 14:08:27;;;;;;;16.83;16.13;;;;;;;;;;5095972;28;20570;-76
2022/05/28 14:10:54;;;;;;;17.60;16.80;;;;;;;;;;5096231;28;20194;-77
2022/05/28 14:13:22;;;;;;;16.75;16.05;;;;;;;;;;5095611;28;20225;-77
2022/05/28 14:15:52;;;;;;;17.25;16.45;;;;;;;;;;5096002;28;20244;-77
2022/05/28 14:18:20;;;;;;;16.63;15.93;;;;;;;;;;5096213;28;20292;-76
2022/05/28 14:20:49;;;;;;;16.90;16.10;;;;;;;;;;5095773;28;20293;-76
2022/05/28 14:23:25;;;;;;;18.88;18.00;;;;;;;;;;5095864;28;20220;-75
2022/05/28 14:25:52;;;;;;;22.45;21.25;;;;;;;;;;5095649;28;20228;-76
2022/05/28 14:28:20;;;;;;;22.40;21.20;;;;;;;;;;5095548;28;20271;-76
2022/05/28 14:30:47;;;;;;;22.25;21.05;;;;;;;;;;5095799;28;20198;-75